Time;durP1;ratioP1;P1;durP2;ratioP2;P2;SDS_P1;SDS_P2;PMS_P1;PMS_P2;Temp;Humidity;BMP_temperature;BMP_pressure;BME280_temperature;BME280_humidity;BME280_pressure;Samples;Min_cycle;Max_cycle;Signal;HPM_P1;HPM_P2
2022/11/28 00:01:27;;;;;;;;;;;4.80;87.10;;;3.57;81.38;97067.41;5071811;28;19926;-81
2022/11/28 00:03:54;;;;;;;;;;;4.80;87.10;;;3.57;81.25;97080.94;5072468;28;19921;-82
2022/11/28 00:06:24;;;;;;;;;;;4.80;87.10;;;3.56;80.84;97071.16;5072492;28;20120;-81
2022/11/28 00:08:52;;;;;;;;;;;4.80;87.10;;;3.57;80.90;97078.22;5071478;28;19926;-81
2022/11/28 00:11:20;;;;;;;;;;;4.80;87.10;;;3.56;80.93;97073.84;5072769;28;19920;-81
2022/11/28 00:13:47;;;;;;;;;;;4.80;87.20;;;3.55;81.17;97066.78;5071179;28;19927;-81
2022/11/28 00:16:16;;;;;;;;;;;4.80;87.30;;;3.56;80.94;97065.72;5071156;28;20226;-81
2022/11/28 00:18:44;;;;;;;;;;;4.80;87.20;;;3.56;80.80;97065.72;5071269;28;19920;-81
2022/11/28 00:21:13;;;;;;;;;;;4.80;87.20;;;3.56;81.07;97064.91;5072463;28;19942;-81
2022/11/28 00:23:43;;;;;;;;;;;4.80;87.10;;;3.55;81.65;97064.06;5070793;28;19932;-81
2022/11/28 00:26:12;;;;;;;;;;;4.80;87.20;;;3.56;81.59;97057.59;5088234;28;19920;-81
2022/11/28 00:28:40;;;;;;;;;;;4.80;87.30;;;3.56;81.54;97060.31;5054464;28;19921;-81
2022/11/28 00:31:12;;;;;;;;;;;4.80;87.20;;;3.56;81.08;97063.03;5072539;28;19920;-81
2022/11/28 00:33:40;;;;;;;;;;;4.80;87.20;;;3.55;81.17;97050.53;5070974;28;19920;-81
2022/11/28 00:36:08;;;;;;;;;;;4.80;87.30;;;3.55;81.44;97053.22;5071008;28;19927;-81
2022/11/28 00:38:36;;;;;;;;;;;4.80;87.20;;;3.55;81.37;97053.22;5071110;28;19943;-81
2022/11/28 00:41:06;;;;;;;;;;;4.80;87.20;;;3.55;81.09;97066.78;5072338;28;19921;-81
2022/11/28 00:43:34;;;;;;;;;;;4.80;87.20;;;3.54;81.02;97067.84;5070695;28;20109;-82
2022/11/28 00:46:02;;;;;;;;;;;4.80;87.30;;;3.54;81.22;97057.00;5071763;28;19926;-81
2022/11/28 00:48:30;;;;;;;;;;;4.80;87.20;;;3.54;80.70;97057.00;5070671;28;19920;-81
2022/11/28 00:51:05;;;;;;;;;;;4.80;87.20;;;3.54;80.92;97062.41;5072106;28;19920;-81
2022/11/28 00:53:33;;;;;;;;;;;4.80;87.20;;;3.55;80.94;97057.81;5050438;28;19929;-81
2022/11/28 00:56:01;;;;;;;;;;;4.80;87.20;;;3.54;81.04;97048.88;5050661;28;19921;-81
2022/11/28 00:58:30;;;;;;;;;;;4.80;87.20;;;3.53;81.19;97042.63;5069866;28;19921;-81
2022/11/28 01:00:58;;;;;;;;;;;4.80;87.30;;;3.53;80.72;97047.22;5072124;28;19920;-81
2022/11/28 01:03:26;;;;;;;;;;;4.80;87.30;;;3.53;81.40;97047.22;5070512;28;19920;-81
2022/11/28 01:05:54;;;;;;;;;;;4.70;87.40;;;3.54;81.51;97046.19;5070532;28;19920;-81
2022/11/28 01:08:22;;;;;;;;;;;4.80;87.40;;;3.53;80.88;97039.09;5070430;28;20212;-81
2022/11/28 01:10:50;;;;;;;;;;;4.80;87.20;;;3.53;81.15;97036.38;5070650;28;19930;-81
2022/11/28 01:13:18;;;;;;;;;;;4.70;87.30;;;3.53;80.96;97041.81;5070374;28;19920;-81
2022/11/28 01:15:47;;;;;;;;;;;4.80;87.30;;;3.53;81.03;97039.09;5071407;28;19927;-81
2022/11/28 01:18:15;;;;;;;;;;;4.70;87.20;;;3.53;81.28;97030.97;5070380;28;19926;-82
2022/11/28 01:20:43;;;;;;;;;;;4.80;87.20;;;3.52;80.91;97027.41;5071565;28;19927;-81
2022/11/28 01:23:11;;;;;;;;;;;4.80;87.20;;;3.52;81.11;97027.41;5071506;28;20133;-81
2022/11/28 01:25:39;;;;;;;;;;;4.80;87.20;;;3.52;80.87;97021.19;5071130;28;19920;-82
2022/11/28 01:28:07;;;;;;;;;;;4.80;87.20;;;3.52;81.54;97013.06;5071198;28;19921;-81
2022/11/28 01:30:34;;;;;;;;;;;4.80;87.40;;;3.52;80.92;97016.59;5070002;28;19926;-81
2022/11/28 01:33:04;;;;;;;;;;;4.80;87.30;;;3.52;81.56;97013.06;5070274;28;19920;-81
2022/11/28 01:35:32;;;;;;;;;;;4.80;87.40;;;3.51;81.21;97014.09;5069848;28;19920;-82
2022/11/28 01:38:00;;;;;;;;;;;4.70;87.20;;;3.51;80.66;97009.50;5070063;28;19920;-81
2022/11/28 01:40:27;;;;;;;;;;;4.70;87.50;;;3.51;81.08;97009.50;5069930;28;19927;-81
2022/11/28 01:42:55;;;;;;;;;;;4.80;87.40;;;3.51;81.26;97004.09;5053539;28;19927;-81
2022/11/28 01:45:24;;;;;;;;;;;4.80;87.30;;;3.50;80.99;97004.31;5069767;28;20204;-82
2022/11/28 01:47:53;;;;;;;;;;;4.80;87.20;;;3.52;81.15;97010.34;5071089;28;19920;-81
2022/11/28 01:50:22;;;;;;;;;;;4.80;87.40;;;3.51;81.69;97003.25;5071003;28;19927;-81
2022/11/28 01:52:51;;;;;;;;;;;4.80;87.30;;;3.51;80.97;96992.44;5050153;28;19935;-81
2022/11/28 01:55:21;;;;;;;;;;;4.80;87.30;;;3.50;81.66;96997.00;5066108;28;19921;-81
2022/11/28 01:57:48;;;;;;;;;;;4.80;87.50;;;3.50;80.85;96998.88;5050981;28;19920;-81
2022/11/28 02:00:18;;;;;;;;;;;4.80;87.30;;;3.50;81.35;97007.00;5052475;28;19921;-81
2022/11/28 02:02:47;;;;;;;;;;;4.70;87.20;;;3.50;80.85;97001.59;5053471;28;20212;-81
2022/11/28 02:05:16;;;;;;;;;;;4.70;87.20;;;3.49;80.95;97000.75;5052925;28;19928;-81
2022/11/28 02:07:45;;;;;;;;;;;4.70;87.30;;;3.49;81.07;97000.75;5056794;28;19921;-82
2022/11/28 02:10:15;;;;;;;;;;;4.80;87.40;;;3.49;80.99;96999.94;5074384;28;19925;-81
2022/11/28 02:12:53;;;;;;;;;;;4.70;87.40;;;3.49;81.04;97006.16;5073566;28;19927;-82
2022/11/28 02:15:33;;;;;;;;;;;4.70;87.30;;;3.49;81.49;97010.75;5073895;28;20090;-81
2022/11/28 02:18:09;;;;;;;;;;;4.70;87.40;;;3.48;80.96;97009.94;5073515;28;19927;-81
2022/11/28 02:21:04;;;;;;;;;;;4.70;87.30;;;3.50;81.09;97007.00;5073223;28;19920;-81
2022/11/28 02:23:43;;;;;;;;;;;4.70;87.30;;;3.48;81.57;96998.25;5072856;28;19921;-82
2022/11/28 02:26:34;;;;;;;;;;;4.70;87.40;;;3.49;81.70;97002.63;5074069;28;20144;-81
2022/11/28 02:29:14;;;;;;;;;;;4.70;87.50;;;3.48;81.37;96999.09;5089000;28;19931;-81
2022/11/28 02:32:11;;;;;;;;;;;4.70;87.30;;;3.48;81.17;97000.97;5073039;28;19920;-81
2022/11/28 02:34:43;;;;;;;;;;;4.70;87.40;;;3.47;81.18;96994.72;5072783;28;20112;-82
2022/11/28 02:37:13;;;;;;;;;;;4.70;87.40;;;3.47;81.33;96997.44;5072764;28;19921;-81
2022/11/28 02:39:44;;;;;;;;;;;4.70;87.40;;;3.47;81.06;96991.16;5074111;28;19921;-81
2022/11/28 02:42:15;;;;;;;;;;;4.70;87.40;;;-151.14;100.00;62537.16;5072980;28;19920;-81
2022/11/28 02:44:44;;;;;;;;;;;4.70;87.40;;;-151.14;100.00;62537.16;5073524;28;20230;-81
2022/11/28 02:47:16;;;;;;;;;;;4.70;87.20;;;-151.14;100.00;62537.16;5072876;28;19927;-81
2022/11/28 02:49:45;;;;;;;;;;;4.70;87.40;;;-151.14;100.00;62537.16;5072767;28;19921;-81
2022/11/28 02:52:15;;;;;;;;;;;4.70;87.30;;;-151.14;100.00;62537.16;5072721;28;19927;-82
2022/11/28 02:54:43;;;;;;;;;;;4.70;87.40;;;-151.14;100.00;62537.16;5071857;28;20227;-81
2022/11/28 02:57:11;;;;;;;;;;;4.70;88.20;;;-151.14;100.00;62537.16;5072846;28;19920;-81
2022/11/28 02:59:46;;;;;;;;;;;4.70;87.40;;;-151.14;100.00;62537.16;5072286;28;19921;-81
2022/11/28 03:02:17;;;;;;;;;;;4.70;87.40;;;-151.14;100.00;62537.16;5056071;28;19929;-81
2022/11/28 03:04:48;;;;;;;;;;;4.70;87.40;;;-151.14;100.00;62537.16;5072057;28;19943;-81
2022/11/28 03:07:22;;;;;;;;;;;4.70;87.50;;;-151.14;100.00;62537.16;5088738;28;20136;-81
2022/11/28 03:10:13;;;;;;;;;;;4.70;87.40;;;-151.14;100.00;62537.16;5072381;28;20208;-82
2022/11/28 03:12:49;;;;;;;;;;;4.70;87.40;;;-151.14;100.00;62537.16;5072401;28;19927;-81
2022/11/28 03:15:18;;;;;;;;;;;4.70;87.60;;;-151.14;100.00;62537.16;5054882;28;19921;-81
2022/11/28 03:17:54;;;;;;;;;;;4.70;87.50;;;-151.14;100.00;62537.16;5072302;28;20116;-82
2022/11/28 03:20:23;;;;;;;;;;;4.70;87.40;;;-151.14;100.00;62537.16;5072097;28;19927;-81
2022/11/28 03:23:11;;;;;;;;;;;4.70;87.40;;;-151.14;100.00;62537.16;5073365;28;19926;-81
2022/11/28 03:25:43;;;;;;;;;;;4.70;87.40;;;-151.14;100.00;62537.16;5071535;28;19925;-81
2022/11/28 03:28:12;;;;;;;;;;;4.70;87.40;;;-151.14;100.00;62537.16;5073354;28;19921;-81
2022/11/28 03:30:42;;;;;;;;;;;4.70;87.40;;;-151.14;100.00;62537.16;5072394;28;19921;-81
2022/11/28 03:33:11;;;;;;;;;;;4.70;87.40;;;-151.14;100.00;62537.16;5072018;28;19940;-81
2022/11/28 03:35:42;;;;;;;;;;;4.70;87.50;;;-151.14;100.00;62537.16;5071867;28;20115;-81
2022/11/28 03:38:11;;;;;;;;;;;4.70;87.40;;;3.42;100.00;62537.16;5072014;28;19920;-81
2022/11/28 03:40:42;;;;;;;;;;;4.70;87.50;;;3.41;100.00;62537.16;5072175;28;19935;-81
2022/11/28 03:43:11;;;;;;;;;;;4.70;88.40;;;-151.14;100.00;62537.16;5071911;28;19927;-81
2022/11/28 03:45:40;;;;;;;;;;;4.70;87.40;;;-151.14;100.00;62537.16;5071750;28;20124;-81
2022/11/28 03:48:10;;;;;;;;;;;4.60;87.40;;;-151.14;100.00;62537.16;5070766;28;20238;-81
2022/11/28 03:50:41;;;;;;;;;;;4.70;87.50;;;3.40;100.00;62537.16;5071108;28;20230;-81
2022/11/28 03:53:10;;;;;;;;;;;4.70;87.50;;;-151.14;100.00;62537.16;5071684;28;19920;-81
2022/11/28 03:55:39;;;;;;;;;;;4.70;87.60;;;-151.14;100.00;62537.16;5071669;28;20089;-81
2022/11/28 03:58:10;;;;;;;;;;;4.70;87.50;;;23.37;100.00;62537.16;5071703;28;19927;-81
2022/11/28 04:00:41;;;;;;;;;;;4.70;87.60;;;-151.14;100.00;62537.16;5072760;28;19927;-81
2022/11/28 04:03:11;;;;;;;;;;;4.70;87.60;;;-151.14;100.00;62537.16;5088351;28;19921;-81
2022/11/28 04:05:43;;;;;;;;;;;4.70;87.40;;;-151.14;100.00;62537.16;5071361;28;19926;-82
2022/11/28 04:08:12;;;;;;;;;;;4.60;87.40;;;-151.14;100.00;62537.16;5071570;28;19921;-81
2022/11/28 04:10:42;;;;;;;;;;;4.60;87.40;;;-151.14;100.00;62537.16;5071527;28;20275;-82
2022/11/28 04:13:13;;;;;;;;;;;4.60;87.40;;;-151.14;100.00;62537.16;5071329;28;20239;-81
2022/11/28 04:15:44;;;;;;;;;;;4.70;87.70;;;-151.14;100.00;62537.16;5054455;28;19927;-81
2022/11/28 04:18:17;;;;;;;;;;;4.70;87.60;;;3.37;100.00;62537.16;5054699;28;19921;-81
2022/11/28 04:20:49;;;;;;;;;;;4.60;87.40;;;-151.14;100.00;62537.16;5071264;28;19927;-81
2022/11/28 04:23:18;;;;;;;;;;;4.70;87.50;;;3.37;100.00;62537.16;5071561;28;19921;-81
2022/11/28 04:25:48;;;;;;;;;;;4.60;87.40;;;-151.14;100.00;62537.16;5054354;28;19921;-81
2022/11/28 04:28:18;;;;;;;;;;;4.60;87.50;;;-151.14;100.00;62537.16;5072269;28;19934;-81
2022/11/28 04:30:46;;;;;;;;;;;4.60;88.30;;;-151.14;100.00;62537.16;5071218;28;19921;-81
2022/11/28 04:33:14;;;;;;;;;;;4.70;87.60;;;3.35;100.00;62537.16;5072309;28;19920;-81
2022/11/28 04:35:44;;;;;;;;;;;4.60;87.40;;;-151.14;100.00;62537.16;5072050;28;19920;-81
2022/11/28 04:38:13;;;;;;;;;;;4.70;87.60;;;-151.14;100.00;62537.16;5070876;28;19927;-81
2022/11/28 04:40:46;;;;;;;;;;;4.60;87.50;;;3.36;100.00;62537.16;5070887;28;19920;-81
2022/11/28 04:43:17;;;;;;;;;;;4.70;87.60;;;-151.14;100.00;62537.16;5070637;28;20209;-81
2022/11/28 04:45:48;;;;;;;;;;;4.70;87.50;;;-151.14;100.00;62537.16;5071901;28;20112;-81
2022/11/28 04:48:16;;;;;;;;;;;4.60;87.60;;;-151.14;100.00;62537.16;5070794;28;19927;-81
2022/11/28 04:50:48;;;;;;;;;;;4.70;87.60;;;-151.14;100.00;62537.16;5070888;28;19934;-81
2022/11/28 04:53:19;;;;;;;;;;;4.70;87.80;;;-151.14;100.00;62537.16;5070609;28;19921;-81
2022/11/28 04:55:48;;;;;;;;;;;4.60;87.60;;;3.34;100.00;62537.16;5070591;28;19928;-81
2022/11/28 04:58:18;;;;;;;;;;;4.70;87.70;;;-151.14;100.00;62537.16;5070524;28;19927;-81
2022/11/28 05:00:46;;;;;;;;;;;4.70;87.60;;;-151.14;100.00;62537.16;5070713;28;20120;-81
2022/11/28 05:03:14;;;;;;;;;;;4.70;87.40;;;-151.14;100.00;62537.16;5070702;28;20462;-81
2022/11/28 05:05:43;;;;;;;;;;;4.60;87.40;;;-151.14;100.00;62537.16;5070358;28;19927;-81
2022/11/28 05:08:11;;;;;;;;;;;4.60;87.50;;;-151.14;100.00;62537.16;5071586;28;19920;-81
2022/11/28 05:10:41;;;;;;;;;;;4.70;87.40;;;-151.14;100.00;62537.16;5054098;28;20111;-81
2022/11/28 05:13:09;;;;;;;;;;;4.60;87.40;;;-151.14;100.00;62537.16;5053678;28;19927;-81
2022/11/28 05:15:36;;;;;;;;;;;4.60;87.60;;;-151.14;100.00;62537.16;5071321;28;19920;-81
2022/11/28 05:18:05;;;;;;;;;;;4.70;87.50;;;-151.14;100.00;62537.16;5053839;28;19921;-81
2022/11/28 05:20:32;;;;;;;;;;;4.60;87.50;;;-151.14;100.00;62537.16;5053659;28;19921;-81
2022/11/28 05:23:00;;;;;;;;;;;4.70;87.70;;;3.33;100.00;62537.16;5070362;28;19927;-81
2022/11/28 05:25:28;;;;;;;;;;;4.70;88.50;;;-151.14;100.00;62537.16;5071071;28;19927;-81
2022/11/28 05:27:58;;;;;;;;;;;4.60;87.50;;;-151.14;100.00;62537.16;5070184;28;19920;-81
2022/11/28 05:30:25;;;;;;;;;;;4.60;87.40;;;-151.14;100.00;62537.16;5070196;28;19920;-81
2022/11/28 05:32:53;;;;;;;;;;;4.60;87.60;;;-151.14;100.00;62537.16;5053293;28;20232;-81
2022/11/28 05:35:22;;;;;;;;;;;4.60;87.40;;;-151.14;100.00;62537.16;5069063;28;19927;-81
2022/11/28 05:37:50;;;;;;;;;;;4.60;87.60;;;-151.14;100.00;62537.16;5069886;28;19920;-81
2022/11/28 05:40:18;;;;;;;;;;;4.60;87.40;;;-151.14;100.00;62537.16;5071162;28;19920;-81
2022/11/28 05:42:46;;;;;;;;;;;4.60;87.40;;;-151.14;100.00;62537.16;5070036;28;19943;-81
2022/11/28 05:45:15;;;;;;;;;;;4.60;88.40;;;-151.14;100.00;62537.16;5069580;28;19942;-81
2022/11/28 05:47:43;;;;;;;;;;;4.60;87.60;;;-151.14;100.00;62537.16;5070156;28;19920;-81
2022/11/28 05:50:11;;;;;;;;;;;4.60;87.50;;;-151.14;100.00;62537.16;5070187;28;19920;-81
2022/11/28 05:52:39;;;;;;;;;;;4.60;87.60;;;-151.14;100.00;62537.16;5071128;28;20120;-81
2022/11/28 05:55:08;;;;;;;;;;;4.60;87.40;;;-151.14;100.00;62537.16;5069581;28;19921;-81
2022/11/28 05:57:36;;;;;;;;;;;4.60;87.50;;;-151.14;100.00;62537.16;5071136;28;19921;-81
2022/11/28 06:00:04;;;;;;;;;;;4.60;87.40;;;-151.14;100.00;62537.16;5069838;28;19924;-81
2022/11/28 06:02:40;;;;;;;;;;;4.60;87.30;;;-151.14;100.00;62537.16;5070078;28;20112;-81
2022/11/28 06:05:09;;;;;;;;;;;4.60;87.50;;;-151.14;100.00;62537.16;5052266;28;20208;-81
2022/11/28 06:07:36;;;;;;;;;;;4.60;87.40;;;-151.14;100.00;62537.16;5070018;28;19921;-81
2022/11/28 06:10:06;;;;;;;;;;;4.60;87.40;;;-151.14;100.00;62537.16;5069935;28;19921;-81
2022/11/28 06:12:33;;;;;;;;;;;4.60;87.70;;;-151.14;100.00;62537.16;5069621;28;19934;-81
2022/11/28 06:15:01;;;;;;;;;;;4.60;87.50;;;-151.14;100.00;62537.16;5052653;28;19943;-81
2022/11/28 06:17:31;;;;;;;;;;;4.60;87.20;;;-151.14;100.00;62537.16;5069715;28;19920;-81
2022/11/28 06:20:00;;;;;;;;;;;4.60;87.50;;;-151.14;100.00;62537.16;5069689;28;19927;-81
2022/11/28 06:22:28;;;;;;;;;;;4.60;87.50;;;-151.14;100.00;62537.16;5069314;28;19920;-81
2022/11/28 06:24:56;;;;;;;;;;;4.60;87.40;;;-151.14;100.00;62537.16;5069348;28;19921;-81
2022/11/28 06:27:24;;;;;;;;;;;4.60;87.20;;;-151.14;100.00;62537.16;5053093;28;20224;-80
2022/11/28 06:29:52;;;;;;;;;;;4.70;87.40;;;-151.14;100.00;62537.16;5069409;28;19920;-81
2022/11/28 06:32:20;;;;;;;;;;;4.60;87.30;;;-151.14;100.00;62537.16;5069672;28;19930;-81
2022/11/28 06:34:47;;;;;;;;;;;4.60;87.40;;;-151.14;100.00;62537.16;5070061;28;19921;-81
2022/11/28 06:37:17;;;;;;;;;;;4.60;87.30;;;-151.14;100.00;62537.16;5069406;28;19920;-82
2022/11/28 06:39:45;;;;;;;;;;;4.70;87.40;;;-151.14;100.00;62537.16;5069533;28;19927;-81
2022/11/28 06:42:14;;;;;;;;;;;4.70;87.30;;;-151.14;100.00;62537.16;5069224;28;19933;-81
2022/11/28 06:44:42;;;;;;;;;;;4.70;87.20;;;-151.14;100.00;62537.16;5069339;28;19921;-81
2022/11/28 06:47:10;;;;;;;;;;;4.60;87.20;;;-151.14;100.00;62537.16;5072847;28;19921;-81
2022/11/28 06:49:38;;;;;;;;;;;4.60;87.20;;;-151.14;100.00;62537.16;5056122;28;19920;-81
2022/11/28 06:52:06;;;;;;;;;;;4.70;87.40;;;-151.14;100.00;62537.16;5073762;28;19927;-81
2022/11/28 06:54:35;;;;;;;;;;;4.70;87.40;;;-151.14;100.00;62537.16;5072307;28;19927;-81
2022/11/28 06:57:04;;;;;;;;;;;4.70;87.20;;;-151.14;100.00;62537.16;5073612;28;19921;-81
2022/11/28 06:59:32;;;;;;;;;;;4.70;87.40;;;-151.14;100.00;62537.16;5073718;28;20226;-81
2022/11/28 07:02:01;;;;;;;;;;;4.70;88.00;;;-151.14;100.00;62537.16;5106519;28;19928;-81
2022/11/28 07:04:29;;;;;;;;;;;4.70;87.20;;;-151.14;100.00;62537.16;5055711;28;19926;-81
2022/11/28 07:06:57;;;;;;;;;;;4.70;86.90;;;-151.14;100.00;62537.16;5073498;28;19928;-81
2022/11/28 07:09:25;;;;;;;;;;;4.70;86.90;;;-151.14;100.00;62537.16;5055584;28;19927;-81
2022/11/28 07:11:54;;;;;;;;;;;4.70;86.90;;;-151.14;100.00;62537.16;5072477;28;19942;-81
2022/11/28 07:14:22;;;;;;;;;;;4.80;86.80;;;-151.14;100.00;62537.16;5073109;28;19920;-81
2022/11/28 07:16:50;;;;;;;;;;;4.80;86.60;;;-151.14;100.00;62537.16;5073384;28;19943;-81
2022/11/28 07:19:21;;;;;;;;;;;4.80;86.70;;;-151.14;100.00;62537.16;5072373;28;19921;-80
2022/11/28 07:21:50;;;;;;;;;;;4.70;86.60;;;-151.14;100.00;62537.16;5072449;28;19920;-81
2022/11/28 07:24:18;;;;;;;;;;;4.70;86.60;;;-151.14;100.00;62537.16;5072108;28;19921;-81
2022/11/28 07:26:46;;;;;;;;;;;4.80;86.70;;;-151.14;100.00;62537.16;5071944;28;20093;-81
2022/11/28 07:29:15;;;;;;;;;;;4.80;86.70;;;-151.14;100.00;62537.16;5072419;28;19920;-81
2022/11/28 07:31:43;;;;;;;;;;;4.80;86.60;;;-151.14;100.00;62537.16;5072049;28;19963;-81
2022/11/28 07:34:11;;;;;;;;;;;4.70;86.60;;;-151.14;100.00;62537.16;5071926;28;20235;-81
2022/11/28 07:36:39;;;;;;;;;;;4.80;86.70;;;-151.14;100.00;62537.16;5073042;28;19953;-81
2022/11/28 07:39:08;;;;;;;;;;;4.80;86.70;;;-151.14;100.00;62537.16;5055035;28;19921;-81
2022/11/28 07:41:36;;;;;;;;;;;4.80;86.80;;;-151.14;100.00;62537.16;5072067;28;20119;-81
2022/11/28 07:44:04;;;;;;;;;;;4.80;86.70;;;-151.14;100.00;62537.16;5071731;28;19927;-81
2022/11/28 07:46:33;;;;;;;;;;;4.80;86.60;;;-151.14;100.00;62537.16;5072828;28;20260;-81
2022/11/28 07:49:01;;;;;;;;;;;4.80;86.50;;;-151.14;100.00;62537.16;5071753;28;19920;-81
2022/11/28 07:51:31;;;;;;;;;;;4.90;86.60;;;3.61;100.00;62537.16;5072078;28;20234;-81
2022/11/28 07:53:59;;;;;;;;;;;4.90;86.50;;;-151.14;100.00;62537.16;5071406;28;19921;-80
2022/11/28 07:56:28;;;;;;;;;;;4.90;86.50;;;-151.14;100.00;62537.16;5053651;28;19920;-80
2022/11/28 07:58:56;;;;;;;;;;;4.90;86.40;;;3.69;100.00;62537.16;5072899;28;20212;-81
2022/11/28 08:01:25;;;;;;;;;;;4.90;86.30;;;-151.14;100.00;62537.16;5055324;28;20098;-81
2022/11/28 08:03:54;;;;;;;;;;;5.00;86.30;;;-151.14;100.00;62537.16;5071547;28;19920;-81
2022/11/28 08:06:23;;;;;;;;;;;5.00;86.00;;;-151.14;100.00;62537.16;5072347;28;19935;-80
2022/11/28 08:08:51;;;;;;;;;;;5.00;86.00;;;-151.14;100.00;62537.16;5072853;28;19921;-81
2022/11/28 08:11:20;;;;;;;;;;;5.10;85.90;;;-151.14;100.00;62537.16;5071651;28;19921;-81
2022/11/28 08:13:48;;;;;;;;;;;5.10;85.70;;;-151.14;100.00;62537.16;5071122;28;20208;-81
2022/11/28 08:16:17;;;;;;;;;;;5.10;85.60;;;;;;5054122;28;19924;-81
2022/11/28 08:18:45;;;;;;;;;;;5.10;85.50;;;-151.14;100.00;62537.16;5072479;28;20098;-81
2022/11/28 08:21:15;;;;;;;;;;;5.10;85.30;;;-151.14;100.00;62537.16;5071494;28;19921;-81
2022/11/28 08:23:44;;;;;;;;;;;5.10;85.20;;;-151.14;100.00;62537.16;5071075;28;20116;-81
2022/11/28 08:26:13;;;;;;;;;;;5.10;86.00;;;-151.14;100.00;62537.16;5071089;28;20220;-81
2022/11/28 08:28:41;;;;;;;;;;;5.20;85.10;;;-151.14;100.00;62537.16;5071330;28;19921;-81
2022/11/28 08:31:09;;;;;;;;;;;5.20;85.20;;;-151.14;100.00;62537.16;5072421;28;19920;-81
2022/11/28 08:33:37;;;;;;;;;;;5.20;85.20;;;-151.14;100.00;62537.16;5071363;28;19920;-81
2022/11/28 08:36:06;;;;;;;;;;;5.20;85.10;;;187.61;100.00;62537.16;5070703;28;19927;-81
2022/11/28 08:38:35;;;;;;;;;;;5.20;85.10;;;-151.14;100.00;62537.16;5071994;28;19921;-81
2022/11/28 08:41:04;;;;;;;;;;;5.20;85.10;;;-151.14;100.00;62537.16;5071090;28;19920;-81
2022/11/28 08:43:33;;;;;;;;;;;5.30;85.40;;;4.84;100.00;62537.16;5070465;28;19931;-81
2022/11/28 08:46:01;;;;;;;;;;;5.20;85.30;;;-151.14;100.00;62537.16;5070755;28;19920;-81
2022/11/28 08:48:29;;;;;;;;;;;5.30;85.40;;;-151.14;100.00;62537.16;5070999;28;19929;-81
2022/11/28 08:50:57;;;;;;;;;;;5.30;85.30;;;-151.14;100.00;62537.16;5071245;28;19920;-81
2022/11/28 08:53:25;;;;;;;;;;;5.30;85.20;;;-151.14;100.00;62537.16;5070758;28;19931;-82
2022/11/28 08:55:55;;;;;;;;;;;5.40;85.20;;;-151.14;100.00;62537.16;5070679;28;20209;-82
2022/11/28 08:58:22;;;;;;;;;;;5.40;85.10;;;-151.14;100.00;62537.16;5070774;28;19920;-81
2022/11/28 09:00:50;;;;;;;;;;;5.40;85.00;;;-151.14;100.00;62537.16;5104416;28;19934;-81
2022/11/28 09:03:19;;;;;;;;;;;5.40;84.90;;;-151.14;100.00;62537.16;5071623;28;19920;-81
2022/11/28 09:05:47;;;;;;;;;;;5.40;84.90;;;-151.14;100.00;62537.16;5070365;28;19935;-82
2022/11/28 09:08:15;;;;;;;;;;;5.40;84.90;;;-151.14;100.00;62537.16;5070411;28;19927;-81
2022/11/28 09:10:43;;;;;;;;;;;5.40;84.80;;;-151.14;100.00;62537.16;5070747;28;20235;-81
2022/11/28 09:13:13;;;;;;;;;;;5.50;84.90;;;-151.14;100.00;62537.16;5070433;28;19920;-81
2022/11/28 09:15:41;;;;;;;;;;;5.50;84.90;;;-151.14;100.00;62537.16;5070439;28;19942;-81
2022/11/28 09:18:09;;;;;;;;;;;5.50;84.80;;;-151.14;100.00;62537.16;5071565;28;19927;-81
2022/11/28 09:20:37;;;;;;;;;;;5.50;84.80;;;-151.14;100.00;62537.16;5071465;28;19927;-81
2022/11/28 09:23:05;;;;;;;;;;;5.60;84.70;;;-151.14;100.00;62537.16;5070309;28;19920;-81
2022/11/28 09:25:34;;;;;;;;;;;5.50;84.60;;;-151.14;100.00;62537.16;5069957;28;19927;-81
2022/11/28 09:28:02;;;;;;;;;;;5.50;84.60;;;-151.14;100.00;62537.16;5071380;28;19926;-82
2022/11/28 09:30:32;;;;;;;;;;;5.60;84.60;;;-151.14;100.00;62537.16;5070441;28;19921;-81
2022/11/28 09:33:00;;;;;;;;;;;5.60;84.60;;;-151.14;100.00;62537.16;5070275;28;19926;-82
2022/11/28 09:35:27;;;;;;;;;;;5.60;84.60;;;-151.14;100.00;62537.16;5069775;28;20116;-81
2022/11/28 09:37:56;;;;;;;;;;;5.60;84.50;;;-151.14;100.00;62537.16;5071384;28;19920;-82
2022/11/28 09:40:25;;;;;;;;;;;5.60;84.50;;;-151.14;100.00;62537.16;5071038;28;19920;-81
2022/11/28 09:42:53;;;;;;;;;;;5.60;84.50;;;-151.14;100.00;62537.16;5069913;28;19935;-81
2022/11/28 09:45:22;;;;;;;;;;;5.60;84.60;;;-151.14;100.00;62537.16;5069532;28;19921;-82
2022/11/28 09:47:53;;;;;;;;;;;5.60;84.50;;;-151.14;100.00;62537.16;5053423;28;19927;-81
2022/11/28 09:50:22;;;;;;;;;;;5.60;84.50;;;4.29;100.00;62537.16;5053277;28;19927;-81
2022/11/28 09:52:54;;;;;;;;;;;5.60;84.50;;;-151.14;100.00;62537.16;5071019;28;19927;-81
2022/11/28 09:55:27;;;;;;;;;;;5.60;84.50;;;-151.14;100.00;62537.16;5069600;28;19920;-81
2022/11/28 09:57:55;;;;;;;;;;;5.60;84.50;;;-151.14;100.00;62537.16;5070230;28;19927;-81
2022/11/28 10:00:24;;;;;;;;;;;5.60;84.50;;;18.09;100.00;62537.16;5071067;28;19929;-81
2022/11/28 10:03:03;;;;;;;;;;;5.60;84.60;;;-151.14;100.00;62537.16;5053111;28;19921;-81
2022/11/28 10:05:34;;;;;;;;;;;5.60;84.50;;;-151.14;100.00;62537.16;5070473;28;20227;-81
2022/11/28 10:08:10;;;;;;;;;;;5.60;84.40;;;4.30;100.00;62537.16;5053024;28;19920;-81
2022/11/28 10:10:41;;;;;;;;;;;5.60;84.40;;;-151.14;100.00;62537.16;5069796;28;20120;-81
2022/11/28 10:13:12;;;;;;;;;;;5.60;84.40;;;-151.14;100.00;62537.16;5070737;28;20238;-81
2022/11/28 10:15:44;;;;;;;;;;;5.60;84.30;;;-151.14;100.00;62537.16;5070543;28;19921;-81
2022/11/28 10:18:22;;;;;;;;;;;5.60;84.40;;;-151.14;100.00;62537.16;5070699;28;20213;-81
2022/11/28 10:20:52;;;;;;;;;;;5.60;84.40;;;-151.14;100.00;62537.16;5071499;28;20117;-81
2022/11/28 10:23:22;;;;;;;;;;;5.60;84.30;;;-151.14;100.00;62537.16;5073262;28;20089;-81
2022/11/28 10:25:52;;;;;;;;;;;5.60;84.30;;;4.28;100.00;62537.16;5074247;28;19927;-81
2022/11/28 10:28:23;;;;;;;;;;;5.60;84.30;;;-151.14;100.00;62537.16;5056542;28;20183;-81
2022/11/28 10:30:53;;;;;;;;;;;5.60;84.30;;;-151.14;100.00;62537.16;5072940;28;20152;-81
2022/11/28 10:33:25;;;;;;;;;;;5.60;84.30;;;-151.14;100.00;62537.16;5074258;28;20231;-81
2022/11/28 10:35:54;;;;;;;;;;;5.60;85.10;;;-151.14;100.00;62537.16;5056045;28;19927;-81
2022/11/28 10:38:26;;;;;;;;;;;5.60;84.30;;;-151.14;100.00;62537.16;5073194;28;20209;-82
2022/11/28 10:40:58;;;;;;;;;;;5.60;84.30;;;4.25;100.00;62537.16;5073196;28;19921;-82
2022/11/28 10:43:37;;;;;;;;;;;5.60;84.30;;;-151.14;100.00;62537.16;5055930;28;20331;-81
2022/11/28 10:46:15;;;;;;;;;;;5.60;84.30;;;-151.14;100.00;62537.16;5072720;28;19927;-81
2022/11/28 10:48:45;;;;;;;;;;;5.60;84.30;;;4.25;100.00;62537.16;5073058;28;19921;-81
2022/11/28 10:51:23;;;;;;;;;;;5.60;84.30;;;-151.14;100.00;62537.16;5072855;28;20212;-81
2022/11/28 10:53:55;;;;;;;;;;;5.60;84.40;;;-151.14;100.00;62537.16;5073573;28;19920;-81
2022/11/28 10:56:29;;;;;;;;;;;5.60;84.30;;;-151.14;100.00;62537.16;5072622;28;20140;-81
2022/11/28 10:58:59;;;;;;;;;;;5.60;84.30;;;4.23;100.00;62537.16;5072447;28;19921;-81
2022/11/28 11:01:28;;;;;;;;;;;5.60;84.30;;;-151.14;100.00;62537.16;5072700;28;20119;-82
2022/11/28 11:03:58;;;;;;;;;;;5.60;84.30;;;-151.14;100.00;62537.16;5073530;28;19920;-81
2022/11/28 11:06:26;;;;;;;;;;;5.60;84.30;;;-151.14;100.00;62537.16;5073317;28;19920;-81
2022/11/28 11:08:54;;;;;;;;;;;5.50;84.40;;;-151.14;100.00;62537.16;5073632;28;19928;-81
2022/11/28 11:11:24;;;;;;;;;;;5.50;84.40;;;-151.14;100.00;62537.16;5072701;28;19927;-81
2022/11/28 11:14:00;;;;;;;;;;;5.50;84.40;;;-151.14;100.00;62537.16;5072368;28;20120;-81
2022/11/28 11:16:48;;;;;;;;;;;5.50;84.40;;;-151.14;100.00;62537.16;5072207;28;19921;-82
2022/11/28 11:19:25;;;;;;;;;;;5.40;84.40;;;-151.14;100.00;62537.16;5073562;28;19920;-81
2022/11/28 11:22:01;;;;;;;;;;;5.40;84.40;;;-151.14;100.00;62537.16;5072491;28;19920;-81
2022/11/28 11:24:29;;;;;;;;;;;5.50;84.60;;;-151.14;100.00;62537.16;5055252;28;20127;-81